createdAt,value
2022-09-30T00:01:36.827Z,92.30
2022-09-30T00:04:05.372Z,92.50
2022-09-30T00:06:36.071Z,92.90
2022-09-30T00:09:04.534Z,92.10
2022-09-30T00:11:34.692Z,92.10
2022-09-30T00:14:03.867Z,91.40
2022-09-30T00:16:36.400Z,90.90
2022-09-30T00:19:06.074Z,88.50
2022-09-30T00:21:35.368Z,90.50
2022-09-30T00:24:04.445Z,92.40
2022-09-30T00:26:32.876Z,90.50
2022-09-30T00:29:01.940Z,89.20
2022-09-30T00:31:33.141Z,90.50
2022-09-30T00:34:11.255Z,90.00
2022-09-30T00:36:44.251Z,92.10
2022-09-30T00:39:14.900Z,93.20
2022-09-30T00:41:43.316Z,91.90
2022-09-30T00:44:50.961Z,91.20
2022-09-30T00:47:43.410Z,89.30
2022-09-30T00:50:27.986Z,90.30
2022-09-30T00:53:07.538Z,90.20
2022-09-30T00:55:41.805Z,90.00
2022-09-30T00:58:12.281Z,90.00
2022-09-30T01:00:40.262Z,89.70
2022-09-30T01:03:08.663Z,90.00
2022-09-30T01:05:37.607Z,89.50
2022-09-30T01:08:09.279Z,90.00
2022-09-30T01:10:37.544Z,90.00
2022-09-30T01:13:06.786Z,91.20
2022-09-30T01:15:51.407Z,91.60
2022-09-30T01:18:27.131Z,91.20
2022-09-30T01:21:14.311Z,90.20
2022-09-30T01:24:07.091Z,90.60
2022-09-30T01:27:06.060Z,90.40
2022-09-30T01:30:00.441Z,87.90
2022-09-30T01:32:45.070Z,88.40
2022-09-30T01:35:24.175Z,90.50
2022-09-30T01:38:03.123Z,91.60
2022-09-30T01:40:38.220Z,90.90
2022-09-30T01:43:11.624Z,91.30
2022-09-30T01:45:43.438Z,91.70
2022-09-30T01:48:21.348Z,92.00
2022-09-30T01:50:54.915Z,91.00
2022-09-30T01:53:29.065Z,90.90
2022-09-30T01:56:02.600Z,90.50
2022-09-30T01:58:40.607Z,91.60
2022-09-30T02:01:12.857Z,91.20
2022-09-30T02:03:46.850Z,91.20
2022-09-30T02:06:18.227Z,91.20
2022-09-30T02:08:51.186Z,91.00
2022-09-30T02:11:24.990Z,91.00
2022-09-30T02:13:57.214Z,91.40
2022-09-30T02:16:33.452Z,90.30
2022-09-30T02:19:10.256Z,90.90
2022-09-30T02:21:42.985Z,92.40
2022-09-30T02:24:15.801Z,90.30
2022-09-30T02:26:46.427Z,91.00
2022-09-30T02:29:18.056Z,90.80
2022-09-30T02:31:49.302Z,91.90
2022-09-30T02:34:21.918Z,92.20
2022-09-30T02:36:56.280Z,91.20
2022-09-30T02:39:35.106Z,88.80
2022-09-30T02:42:08.835Z,90.60
2022-09-30T02:44:37.466Z,90.70
2022-09-30T02:47:13.787Z,92.00
2022-09-30T02:49:48.619Z,91.90
2022-09-30T02:52:25.500Z,90.50
2022-09-30T02:55:03.577Z,90.10
2022-09-30T02:57:39.058Z,90.80
2022-09-30T03:00:12.673Z,91.50
2022-09-30T03:02:41.532Z,92.60
2022-09-30T03:05:11.873Z,93.20
2022-09-30T03:07:41.016Z,91.60
2022-09-30T03:10:14.427Z,90.90
2022-09-30T03:13:00.655Z,91.30
2022-09-30T03:15:40.111Z,90.90
2022-09-30T03:18:25.286Z,90.60
2022-09-30T03:21:08.850Z,89.60
2022-09-30T03:24:13.582Z,90.50
2022-09-30T03:26:50.130Z,91.70
2022-09-30T03:29:25.212Z,91.50
2022-09-30T03:32:04.400Z,91.50
2022-09-30T03:34:42.684Z,91.80
2022-09-30T03:37:21.125Z,92.00
2022-09-30T03:39:57.790Z,91.40
2022-09-30T03:42:30.607Z,90.30
2022-09-30T03:45:05.253Z,90.60
2022-09-30T03:47:35.787Z,90.70
2022-09-30T03:50:07.920Z,90.50
2022-09-30T03:52:37.918Z,91.20
2022-09-30T03:55:09.472Z,89.50
2022-09-30T03:57:37.332Z,90.70
2022-09-30T04:00:06.896Z,91.10
2022-09-30T04:02:37.841Z,91.00
2022-09-30T04:05:07.581Z,90.20
2022-09-30T04:07:37.023Z,91.60
2022-09-30T04:10:05.841Z,92.80
2022-09-30T04:12:33.799Z,90.70
2022-09-30T04:15:01.653Z,91.60
2022-09-30T04:17:29.512Z,90.50
2022-09-30T04:19:57.383Z,88.90
2022-09-30T04:22:26.540Z,88.80
2022-09-30T04:24:55.944Z,91.50
2022-09-30T04:27:23.804Z,92.60
2022-09-30T04:29:51.663Z,91.20
2022-09-30T04:32:19.517Z,91.80
2022-09-30T04:34:47.339Z,90.70
2022-09-30T04:37:15.668Z,90.80
2022-09-30T04:39:44.186Z,90.20
2022-09-30T04:42:13.479Z,91.00
2022-09-30T04:44:41.359Z,91.00
2022-09-30T04:47:09.231Z,90.50
2022-09-30T04:49:37.137Z,91.50
2022-09-30T04:52:04.998Z,92.70
2022-09-30T04:54:32.886Z,94.10
2022-09-30T04:57:00.754Z,93.90
2022-09-30T04:59:29.963Z,93.20
2022-09-30T05:01:57.826Z,90.90
2022-09-30T05:04:26.101Z,90.10
2022-09-30T05:06:53.994Z,90.30
2022-09-30T05:09:21.946Z,90.50
2022-09-30T05:11:49.959Z,90.30
2022-09-30T05:14:17.870Z,89.90
2022-09-30T05:16:47.071Z,90.00
2022-09-30T05:19:14.918Z,89.20
2022-09-30T05:21:44.829Z,88.70
2022-09-30T05:24:12.835Z,89.30
2022-09-30T05:26:41.126Z,90.30
2022-09-30T05:29:10.307Z,92.80
2022-09-30T05:31:38.213Z,92.60
2022-09-30T05:34:07.470Z,93.80
2022-09-30T05:36:36.079Z,93.80
2022-09-30T05:39:04.411Z,91.50
2022-09-30T05:41:32.707Z,91.90
2022-09-30T05:44:01.205Z,91.40
2022-09-30T05:46:29.471Z,92.10
2022-09-30T05:48:57.389Z,94.00
2022-09-30T05:51:26.645Z,94.10
2022-09-30T05:53:54.568Z,92.30
2022-09-30T05:56:22.436Z,91.60
2022-09-30T05:58:50.961Z,92.00
2022-09-30T06:01:19.136Z,92.10
2022-09-30T06:03:47.834Z,90.80
2022-09-30T06:06:16.551Z,93.70
2022-09-30T06:08:46.939Z,94.00
2022-09-30T06:11:16.849Z,97.10
2022-09-30T06:13:47.226Z,97.20
2022-09-30T06:16:15.853Z,95.90
2022-09-30T06:18:43.832Z,94.90
2022-09-30T06:21:13.627Z,95.80
2022-09-30T06:23:41.536Z,95.00
2022-09-30T06:26:13.394Z,95.70
2022-09-30T06:28:41.549Z,96.20
2022-09-30T06:31:10.278Z,94.50
2022-09-30T06:33:38.263Z,96.00
2022-09-30T06:36:07.133Z,95.40
2022-09-30T06:38:37.170Z,95.10
2022-09-30T06:41:05.860Z,94.70
2022-09-30T06:44:00.281Z,94.50
2022-09-30T06:46:29.756Z,94.50
2022-09-30T06:49:13.561Z,94.40
2022-09-30T06:51:47.646Z,94.10
2022-09-30T06:54:15.596Z,94.10
2022-09-30T06:56:43.938Z,93.90
2022-09-30T06:59:15.643Z,93.80
2022-09-30T07:01:45.010Z,93.90
2022-09-30T07:04:13.396Z,93.80
2022-09-30T07:06:41.801Z,93.90
2022-09-30T07:09:11.272Z,93.80
2022-09-30T07:11:39.684Z,93.90
2022-09-30T07:14:07.887Z,94.10
2022-09-30T07:16:38.492Z,94.10
2022-09-30T07:19:08.916Z,94.20
2022-09-30T07:21:36.836Z,94.20
2022-09-30T07:24:05.574Z,94.40
2022-09-30T07:26:33.679Z,94.40
2022-09-30T07:29:02.363Z,94.30
2022-09-30T07:31:33.498Z,94.40
2022-09-30T07:34:06.871Z,94.40
2022-09-30T07:36:37.694Z,94.60
2022-09-30T07:39:08.419Z,94.30
2022-09-30T07:41:39.331Z,94.60
2022-09-30T07:44:10.195Z,94.80
2022-09-30T07:46:40.307Z,94.40
2022-09-30T07:49:14.665Z,94.50
2022-09-30T07:51:45.330Z,94.30
2022-09-30T07:54:15.136Z,94.40
2022-09-30T07:59:33.203Z,94.30
2022-09-30T08:02:01.650Z,94.30
2022-09-30T08:04:30.926Z,94.20
2022-09-30T08:07:02.218Z,94.20
2022-09-30T08:09:31.381Z,94.20
2022-09-30T08:11:59.779Z,93.90
2022-09-30T08:14:28.812Z,93.90
2022-09-30T08:16:58.302Z,93.90
2022-09-30T08:19:27.827Z,93.80
2022-09-30T08:21:57.658Z,93.80
2022-09-30T08:24:27.286Z,93.70
2022-09-30T08:26:56.220Z,93.60
2022-09-30T08:29:50.061Z,93.70
2022-09-30T08:32:12.286Z,93.60
2022-09-30T08:34:40.186Z,93.40
2022-09-30T08:37:10.176Z,93.30
2022-09-30T08:39:38.383Z,93.40
2022-09-30T08:42:41.310Z,93.40
2022-09-30T08:45:22.596Z,93.40
2022-09-30T08:47:56.592Z,93.40
2022-09-30T08:50:31.147Z,93.40
2022-09-30T08:53:02.607Z,93.50
2022-09-30T08:55:36.639Z,93.30
2022-09-30T08:58:06.020Z,93.20
2022-09-30T09:00:35.512Z,93.10
2022-09-30T09:03:04.631Z,93.10
2022-09-30T09:05:41.870Z,93.10
2022-09-30T09:08:19.510Z,93.10
2022-09-30T09:10:51.378Z,93.20
2022-09-30T09:13:33.605Z,93.20
2022-09-30T09:16:11.399Z,93.30
2022-09-30T09:19:04.665Z,93.20
2022-09-30T09:21:43.218Z,93.10
2022-09-30T09:24:18.408Z,93.10
2022-09-30T09:26:47.795Z,93.20
2022-09-30T09:29:37.919Z,93.10
2022-09-30T09:32:14.121Z,93.20
2022-09-30T09:34:42.773Z,93.20
2022-09-30T09:37:21.481Z,93.20
2022-09-30T09:40:07.691Z,93.20
2022-09-30T09:42:54.379Z,92.50
2022-09-30T09:45:30.850Z,92.70
2022-09-30T09:48:00.021Z,92.20
2022-09-30T09:50:39.771Z,91.90
2022-09-30T09:53:27.275Z,92.00
2022-09-30T09:55:59.954Z,92.00
2022-09-30T09:58:28.238Z,91.90
2022-09-30T10:01:30.489Z,91.50
2022-09-30T10:04:10.969Z,91.40
2022-09-30T10:06:51.443Z,91.70
2022-09-30T10:09:34.000Z,91.70
2022-09-30T10:12:32.093Z,91.50
2022-09-30T10:15:16.813Z,91.50
2022-09-30T10:17:50.701Z,91.30
2022-09-30T10:20:25.991Z,91.60
2022-09-30T10:23:02.292Z,91.60
2022-09-30T10:25:30.906Z,91.60
2022-09-30T10:28:01.524Z,91.20
2022-09-30T10:30:50.169Z,91.20
2022-09-30T10:33:27.464Z,91.10
2022-09-30T10:36:01.606Z,91.00
2022-09-30T10:38:31.926Z,90.90
2022-09-30T10:41:00.301Z,91.00
2022-09-30T10:43:34.791Z,91.10
2022-09-30T10:48:54.766Z,90.90
2022-09-30T10:51:36.226Z,91.30
2022-09-30T10:54:05.330Z,91.10
2022-09-30T10:56:42.170Z,91.10
2022-09-30T10:59:25.004Z,91.10
2022-09-30T11:01:59.962Z,90.70
2022-09-30T11:04:34.976Z,90.50
2022-09-30T11:07:15.651Z,90.60
2022-09-30T11:09:52.304Z,90.40
2022-09-30T11:12:26.514Z,89.40
2022-09-30T11:15:04.264Z,89.90
2022-09-30T11:17:39.720Z,89.80
2022-09-30T11:20:16.876Z,88.10
2022-09-30T11:22:52.755Z,87.20
2022-09-30T11:25:27.999Z,88.00
2022-09-30T11:28:15.429Z,87.50
2022-09-30T11:30:53.751Z,87.40
2022-09-30T11:33:50.660Z,88.00
2022-09-30T11:36:26.286Z,87.10
2022-09-30T11:39:08.470Z,87.50
2022-09-30T11:41:39.668Z,88.30
2022-09-30T11:44:21.282Z,88.30
2022-09-30T11:47:13.016Z,88.10
2022-09-30T11:49:54.468Z,86.50
2022-09-30T11:52:30.423Z,86.10
2022-09-30T11:55:15.738Z,85.60
2022-09-30T11:57:50.458Z,85.60
2022-09-30T12:00:20.331Z,85.90
2022-09-30T12:02:52.866Z,85.50
2022-09-30T12:05:27.323Z,85.50
2022-09-30T12:08:02.634Z,85.60
2022-09-30T12:10:35.992Z,86.50
2022-09-30T12:13:10.223Z,85.10
2022-09-30T12:15:38.959Z,85.20
2022-09-30T12:18:14.523Z,84.90
2022-09-30T12:20:47.824Z,84.70
2022-09-30T12:23:20.816Z,85.20
2022-09-30T12:25:53.811Z,85.60
2022-09-30T12:28:49.751Z,85.20
2022-09-30T12:31:35.967Z,84.20
2022-09-30T12:34:18.128Z,84.20
2022-09-30T12:37:11.180Z,83.30
2022-09-30T12:40:13.559Z,81.90
2022-09-30T12:42:59.815Z,81.40
2022-09-30T12:46:00.950Z,81.80
2022-09-30T12:48:34.127Z,81.20
2022-09-30T12:51:04.588Z,80.80
2022-09-30T12:53:34.579Z,80.40
2022-09-30T12:56:08.058Z,81.50
2022-09-30T12:58:38.523Z,80.60
2022-09-30T13:01:12.567Z,80.90
2022-09-30T13:03:52.361Z,80.70
2022-09-30T13:06:22.773Z,80.30
2022-09-30T13:09:18.744Z,80.00
2022-09-30T13:11:48.111Z,79.30
2022-09-30T13:14:33.131Z,79.70
2022-09-30T13:17:26.936Z,79.20
2022-09-30T13:19:57.416Z,78.70
2022-09-30T13:22:57.524Z,78.20
2022-09-30T13:25:25.428Z,77.90
2022-09-30T13:27:55.525Z,78.60
2022-09-30T13:30:50.485Z,79.30
2022-09-30T13:33:46.985Z,77.00
2022-09-30T13:36:28.950Z,77.40
2022-09-30T13:39:22.116Z,76.30
2022-09-30T13:42:01.828Z,76.10
2022-09-30T13:44:38.660Z,76.30
2022-09-30T13:47:16.351Z,75.80
2022-09-30T13:49:50.699Z,75.60
2022-09-30T13:52:23.468Z,75.60
2022-09-30T13:54:54.801Z,74.90
2022-09-30T13:57:28.107Z,75.00
2022-09-30T14:00:05.965Z,75.40
2022-09-30T14:03:06.956Z,75.40
2022-09-30T14:06:00.621Z,75.50
2022-09-30T14:09:05.776Z,75.50
2022-09-30T14:12:00.318Z,76.10
2022-09-30T14:15:08.332Z,75.80
2022-09-30T14:17:56.766Z,76.00
2022-09-30T14:20:36.193Z,76.20
2022-09-30T14:23:05.159Z,76.50
2022-09-30T14:25:38.968Z,75.90
2022-09-30T14:28:13.444Z,76.00
2022-09-30T14:31:05.565Z,77.00
2022-09-30T14:33:34.399Z,77.00
2022-09-30T14:36:04.360Z,76.80
2022-09-30T14:38:35.881Z,76.70
2022-09-30T14:41:09.177Z,76.40
2022-09-30T14:43:44.196Z,76.00
2022-09-30T14:46:25.041Z,75.70
2022-09-30T14:48:53.850Z,75.70
2022-09-30T14:51:23.853Z,75.60
2022-09-30T14:53:57.510Z,75.50
2022-09-30T14:56:29.565Z,76.10
2022-09-30T14:59:01.118Z,75.50
2022-09-30T15:01:31.768Z,75.00
2022-09-30T15:04:03.931Z,75.00
2022-09-30T15:06:34.391Z,75.20
2022-09-30T15:09:05.095Z,74.90
2022-09-30T15:11:38.756Z,75.00
2022-09-30T15:14:14.984Z,75.10
2022-09-30T15:16:47.627Z,74.80
2022-09-30T15:19:21.051Z,74.60
2022-09-30T15:21:49.934Z,73.90
2022-09-30T15:24:20.205Z,74.20
2022-09-30T15:26:49.139Z,74.80
2022-09-30T15:29:18.576Z,76.00
2022-09-30T15:31:48.046Z,76.20
2022-09-30T15:34:20.520Z,75.30
2022-09-30T15:36:59.632Z,75.40
2022-09-30T15:39:50.395Z,75.40
2022-09-30T15:42:32.124Z,75.40
2022-09-30T15:45:02.152Z,75.50
2022-09-30T15:47:30.029Z,76.20
2022-09-30T15:49:58.007Z,76.20
2022-09-30T15:52:33.561Z,76.50
2022-09-30T15:55:01.372Z,76.30
2022-09-30T15:57:48.878Z,76.10
2022-09-30T16:00:39.281Z,76.50
2022-09-30T16:03:28.794Z,77.80
2022-09-30T16:06:07.987Z,81.60
2022-09-30T16:08:43.204Z,79.30
2022-09-30T16:11:18.999Z,79.30
2022-09-30T16:13:47.887Z,78.80
2022-09-30T16:16:28.185Z,78.90
2022-09-30T16:18:57.832Z,78.20
2022-09-30T16:21:47.108Z,78.10
2022-09-30T16:24:43.754Z,78.10
2022-09-30T16:27:33.878Z,78.50
2022-09-30T16:30:03.682Z,78.80
2022-09-30T16:32:37.005Z,79.60
2022-09-30T16:35:05.956Z,79.20
2022-09-30T16:37:35.080Z,79.70
2022-09-30T16:40:16.199Z,79.80
2022-09-30T16:42:44.070Z,79.90
2022-09-30T16:45:14.672Z,79.80
2022-09-30T16:47:44.618Z,79.80
2022-09-30T16:50:24.237Z,80.00
2022-09-30T16:52:52.126Z,80.10
2022-09-30T16:55:19.979Z,80.90
2022-09-30T16:57:47.868Z,81.40
2022-09-30T17:00:18.104Z,81.80
2022-09-30T17:02:49.051Z,81.50
2022-09-30T17:05:19.632Z,81.40
2022-09-30T17:07:48.116Z,81.60
2022-09-30T17:10:21.989Z,81.80
2022-09-30T17:12:50.884Z,82.90
2022-09-30T17:15:19.513Z,82.40
2022-09-30T17:17:48.935Z,82.60
2022-09-30T17:20:16.878Z,82.90
2022-09-30T17:22:46.080Z,83.10
2022-09-30T17:25:14.844Z,83.20
2022-09-30T17:27:43.158Z,82.80
2022-09-30T17:30:11.862Z,84.20
2022-09-30T17:32:39.740Z,83.00
2022-09-30T17:35:10.113Z,83.40
2022-09-30T17:37:41.290Z,84.60
2022-09-30T17:40:26.008Z,85.20
2022-09-30T17:43:10.978Z,85.20
2022-09-30T17:45:40.722Z,85.20
2022-09-30T17:48:09.344Z,86.70
2022-09-30T17:50:40.663Z,89.40
2022-09-30T17:53:08.871Z,89.40
2022-09-30T17:55:36.799Z,88.80
2022-09-30T17:58:04.695Z,87.80
2022-09-30T18:00:33.497Z,86.90
2022-09-30T18:03:02.770Z,85.90
2022-09-30T18:05:31.795Z,85.40
2022-09-30T18:08:01.304Z,86.40
2022-09-30T18:10:29.246Z,85.80
2022-09-30T18:12:57.254Z,85.80
2022-09-30T18:15:26.172Z,85.40
2022-09-30T18:17:54.024Z,86.20
2022-09-30T18:20:24.854Z,86.60
2022-09-30T18:22:53.690Z,87.20
2022-09-30T18:25:23.029Z,86.70
2022-09-30T18:27:53.074Z,87.30
2022-09-30T18:30:21.761Z,87.30
2022-09-30T18:32:50.716Z,88.10
2022-09-30T18:35:20.425Z,87.20
2022-09-30T18:37:49.734Z,87.30
2022-09-30T18:40:18.842Z,87.70
2022-09-30T18:42:48.575Z,88.90
2022-09-30T18:45:16.901Z,88.90
2022-09-30T18:47:45.713Z,90.00
2022-09-30T18:50:17.919Z,90.40
2022-09-30T18:52:45.768Z,90.50
2022-09-30T18:55:13.660Z,90.70
2022-09-30T18:57:41.669Z,90.60
2022-09-30T19:00:11.793Z,90.80
2022-09-30T19:02:40.728Z,91.40
2022-09-30T19:05:09.440Z,91.40
2022-09-30T19:07:38.495Z,91.60
2022-09-30T19:10:07.443Z,91.70
2022-09-30T19:12:36.711Z,91.80
2022-09-30T19:15:04.825Z,92.00
2022-09-30T19:17:34.388Z,92.30
2022-09-30T19:20:02.660Z,92.10
2022-09-30T19:22:30.954Z,92.20
2022-09-30T19:24:58.836Z,92.00
2022-09-30T19:27:27.046Z,92.00
2022-09-30T19:29:59.248Z,92.20
2022-09-30T19:32:28.917Z,92.00
2022-09-30T19:35:05.268Z,91.60
2022-09-30T19:37:34.939Z,91.90
2022-09-30T19:40:20.077Z,92.20
2022-09-30T19:42:49.548Z,91.30
2022-09-30T19:45:19.271Z,91.00
2022-09-30T19:47:49.159Z,91.80
2022-09-30T19:50:18.821Z,91.90
2022-09-30T19:52:56.394Z,91.60
2022-09-30T19:55:25.631Z,91.60
2022-09-30T19:57:53.557Z,91.30
2022-09-30T20:00:21.596Z,90.60
2022-09-30T20:02:50.146Z,91.10
2022-09-30T20:05:19.417Z,91.20
2022-09-30T20:07:50.856Z,89.60
2022-09-30T20:10:18.754Z,90.40
2022-09-30T20:12:46.609Z,90.60
2022-09-30T20:15:31.978Z,90.30
2022-09-30T20:17:59.846Z,90.10
2022-09-30T20:20:42.443Z,89.90
2022-09-30T20:23:10.299Z,88.60
2022-09-30T20:25:38.287Z,88.80
2022-09-30T20:28:06.991Z,89.90
2022-09-30T20:30:38.656Z,90.20
2022-09-30T20:33:06.949Z,88.40
2022-09-30T20:35:37.500Z,89.20
2022-09-30T20:38:06.748Z,89.90
2022-09-30T20:40:34.775Z,90.30
2022-09-30T20:43:03.941Z,90.40
2022-09-30T20:45:32.095Z,89.50
2022-09-30T20:48:00.003Z,89.30
2022-09-30T20:50:36.599Z,90.20
2022-09-30T20:53:08.910Z,88.60
2022-09-30T20:55:38.775Z,90.10
2022-09-30T20:58:08.127Z,88.80
2022-09-30T21:00:39.566Z,90.00
2022-09-30T21:03:09.630Z,90.80
2022-09-30T21:05:37.947Z,90.80
2022-09-30T21:08:07.606Z,89.40
2022-09-30T21:10:38.593Z,90.40
2022-09-30T21:13:10.346Z,90.90
2022-09-30T21:15:38.272Z,91.50
2022-09-30T21:18:06.528Z,90.50
2022-09-30T21:20:34.418Z,91.30
2022-09-30T21:23:03.080Z,90.90
2022-09-30T21:25:32.459Z,90.10
2022-09-30T21:28:00.382Z,90.90
2022-09-30T21:30:28.873Z,90.70
2022-09-30T21:32:57.260Z,90.30
2022-09-30T21:35:25.124Z,90.90
2022-09-30T21:37:53.003Z,90.50
2022-09-30T21:40:20.883Z,90.90
2022-09-30T21:42:50.064Z,90.70
2022-09-30T21:45:20.035Z,90.80
2022-09-30T21:47:47.915Z,89.50
2022-09-30T21:50:15.886Z,90.20
2022-09-30T21:52:43.861Z,90.00
2022-09-30T21:55:12.447Z,90.60
2022-09-30T21:57:40.299Z,90.50
2022-09-30T22:00:11.018Z,90.60
2022-09-30T22:02:38.944Z,87.90
2022-09-30T22:05:07.356Z,90.30
2022-09-30T22:07:35.273Z,89.30
2022-09-30T22:10:03.510Z,89.30
2022-09-30T22:12:33.006Z,87.90
2022-09-30T22:15:00.842Z,86.30
2022-09-30T22:17:30.079Z,90.60
2022-09-30T22:19:57.996Z,87.90
2022-09-30T22:22:26.469Z,90.30
2022-09-30T22:24:54.395Z,90.70
2022-09-30T22:27:22.284Z,90.60
2022-09-30T22:29:50.146Z,90.30
2022-09-30T22:32:18.074Z,90.30
2022-09-30T22:35:04.997Z,90.40
2022-09-30T22:38:01.924Z,90.10
2022-09-30T22:40:29.839Z,88.00
2022-09-30T22:42:57.813Z,89.70
2022-09-30T22:45:25.815Z,88.20
2022-09-30T22:47:53.899Z,89.80
2022-09-30T22:50:25.097Z,89.30
2022-09-30T22:52:52.919Z,90.60
2022-09-30T22:55:20.728Z,90.60
2022-09-30T22:57:48.563Z,90.50
2022-09-30T23:00:16.584Z,90.10
2022-09-30T23:02:45.128Z,90.10
2022-09-30T23:05:13.020Z,90.20
2022-09-30T23:07:42.274Z,90.10
2022-09-30T23:10:10.969Z,90.00
2022-09-30T23:12:38.848Z,90.00
2022-09-30T23:15:08.379Z,89.90
2022-09-30T23:17:36.239Z,90.00
2022-09-30T23:20:04.608Z,88.90
2022-09-30T23:22:32.476Z,90.00
2022-09-30T23:25:02.439Z,90.10
2022-09-30T23:27:30.442Z,88.10
2022-09-30T23:29:58.288Z,90.20
2022-09-30T23:32:26.788Z,90.30
2022-09-30T23:34:55.082Z,90.30
2022-09-30T23:37:22.965Z,90.40
2022-09-30T23:39:50.877Z,90.10
2022-09-30T23:42:20.151Z,90.40
2022-09-30T23:44:48.049Z,90.30
2022-09-30T23:47:18.595Z,90.40
2022-09-30T23:49:46.924Z,90.40
2022-09-30T23:52:15.099Z,89.00
2022-09-30T23:54:43.589Z,90.40
2022-09-30T23:57:12.084Z,90.60
2022-09-30T23:59:41.358Z,88.60
